Time;durP1;ratioP1;P1;durP2;ratioP2;P2;SDS_P1;SDS_P2;PMS_P1;PMS_P2;Temp;Humidity;BMP_temperature;BMP_pressure;BME280_temperature;BME280_humidity;BME280_pressure;Samples;Min_cycle;Max_cycle;Signal;HPM_P1;HPM_P2
2023/09/19 00:00:40;;;;;;;3.78;1.20;;;;;;;;;;5095558;28;20078;-77
2023/09/19 00:03:06;;;;;;;2.70;1.20;;;;;;;;;;5104620;28;20055;-75
2023/09/19 00:05:36;;;;;;;5.70;1.50;;;;;;;;;;5129474;27;20039;-75
2023/09/19 00:08:05;;;;;;;3.05;1.20;;;;;;;;;;5094420;28;20055;-75
2023/09/19 00:10:34;;;;;;;7.07;1.40;;;;;;;;;;5129203;27;20511;-75
2023/09/19 00:13:05;;;;;;;4.03;1.40;;;;;;;;;;5129652;27;20055;-75
2023/09/19 00:15:33;;;;;;;2.45;1.23;;;;;;;;;;5095367;28;20052;-75
2023/09/19 00:17:59;;;;;;;10.60;1.38;;;;;;;;;;5097025;27;20038;-76
2023/09/19 00:20:25;;;;;;;;;;;;;;;;;;5112777;28;20054;-76
2023/09/19 00:22:53;;;;;;;5.82;1.40;;;;;;;;;;5126106;27;20355;-77
2023/09/19 00:25:20;;;;;;;8.70;1.90;;;;;;;;;;5133055;27;20450;-76
2023/09/19 00:27:47;;;;;;;5.20;1.45;;;;;;;;;;5095636;28;20051;-77
2023/09/19 00:30:15;;;;;;;6.05;1.48;;;;;;;;;;5078807;28;20043;-77
2023/09/19 00:32:47;;;;;;;5.82;1.50;;;;;;;;;;5111341;28;20059;-78
2023/09/19 00:35:14;;;;;;;6.53;1.52;;;;;;;;;;5094872;28;20134;-76
2023/09/19 00:37:40;;;;;;;6.97;1.80;;;;;;;;;;5110172;28;20480;-78
2023/09/19 00:40:09;;;;;;;6.22;1.80;;;;;;;;;;5095246;27;20127;-76
2023/09/19 00:42:37;;;;;;;5.07;1.60;;;;;;;;;;5111043;28;20044;-77
2023/09/19 00:45:05;;;;;;;6.10;1.90;;;;;;;;;;5095005;28;20051;-77
2023/09/19 00:47:31;;;;;;;6.25;2.10;;;;;;;;;;5094406;28;20043;-80
2023/09/19 00:49:57;;;;;;;;;;;;;;;;;;5096601;27;20051;-76
2023/09/19 00:52:23;;;;;;;9.63;2.53;;;;;;;;;;5110548;28;19920;-76
2023/09/19 00:54:50;;;;;;;11.05;2.10;;;;;;;;;;5077563;28;20047;-76
2023/09/19 00:57:17;;;;;;;8.48;2.30;;;;;;;;;;5111594;28;20130;-76
2023/09/19 00:59:43;;;;;;;10.20;2.22;;;;;;;;;;5094052;28;20090;-76
2023/09/19 01:02:10;;;;;;;;;;;;;;;;;;5111345;28;20036;-76
2023/09/19 01:04:36;;;;;;;11.27;2.10;;;;;;;;;;5111192;28;19920;-77
2023/09/19 01:07:03;;;;;;;10.35;2.60;;;;;;;;;;5109764;28;20067;-76
2023/09/19 01:09:29;;;;;;;12.85;2.30;;;;;;;;;;5101051;27;20051;-77
2023/09/19 01:11:55;;;;;;;;;;;;;;;;;;5131060;27;20118;-76
2023/09/19 01:14:58;;;;;;;9.38;2.35;;;;;;;;;;5131629;27;20007;-78
2023/09/19 01:17:32;;;;;;;12.50;2.42;;;;;;;;;;5072030;28;20152;-76
2023/09/19 01:20:11;;;;;;;17.45;2.50;;;;;;;;;;5110721;28;20050;-76
2023/09/19 01:23:03;;;;;;;10.27;2.20;;;;;;;;;;5092415;28;20130;-81
2023/09/19 01:25:51;;;;;;;10.55;2.63;;;;;;;;;;5080072;28;20537;-76
2023/09/19 01:28:23;;;;;;;13.57;3.10;;;;;;;;;;5116795;27;20054;-76
2023/09/19 01:30:54;;;;;;;12.90;2.70;;;;;;;;;;5114311;27;20054;-76
2023/09/19 01:33:20;;;;;;;11.20;2.60;;;;;;;;;;5125814;27;20135;-76
2023/09/19 01:35:47;;;;;;;11.57;3.10;;;;;;;;;;5112239;27;20059;-77
2023/09/19 01:38:14;;;;;;;14.63;2.67;;;;;;;;;;5095772;27;20051;-76
2023/09/19 01:40:44;;;;;;;11.88;2.95;;;;;;;;;;5113908;27;20134;-80
2023/09/19 01:43:16;;;;;;;13.07;3.30;;;;;;;;;;5118606;27;20126;-77
2023/09/19 01:46:05;;;;;;;13.73;2.60;;;;;;;;;;5116948;27;20054;-76
2023/09/19 01:48:34;;;;;;;11.85;2.60;;;;;;;;;;5134739;27;20050;-76
2023/09/19 01:51:01;;;;;;;13.00;2.60;;;;;;;;;;5133405;27;20546;-76
2023/09/19 01:53:30;;;;;;;12.75;2.60;;;;;;;;;;5115468;27;20054;-78
2023/09/19 01:55:57;;;;;;;12.18;2.80;;;;;;;;;;5120417;27;20127;-77
2023/09/19 01:58:42;;;;;;;13.63;2.70;;;;;;;;;;5113022;28;20188;-76
2023/09/19 02:01:10;;;;;;;13.55;2.92;;;;;;;;;;5096541;28;20046;-77
2023/09/19 02:03:37;;;;;;;11.07;2.92;;;;;;;;;;5130850;27;20050;-77
2023/09/19 02:06:04;;;;;;;13.80;2.75;;;;;;;;;;5099625;27;20085;-78
2023/09/19 02:08:33;;;;;;;9.50;2.72;;;;;;;;;;5102818;27;20125;-76
2023/09/19 02:11:00;;;;;;;11.15;2.70;;;;;;;;;;5137731;27;20394;-76
2023/09/19 02:13:28;;;;;;;12.48;2.88;;;;;;;;;;5133098;27;20065;-77
2023/09/19 02:15:54;;;;;;;10.68;2.58;;;;;;;;;;5113041;28;20078;-76
2023/09/19 02:18:20;;;;;;;;;;;;;;;;;;5097092;28;20130;-77
2023/09/19 02:20:46;;;;;;;8.75;2.90;;;;;;;;;;5113843;28;19958;-81
2023/09/19 02:23:13;;;;;;;9.80;2.75;;;;;;;;;;5095341;28;20094;-77
2023/09/19 02:25:40;;;;;;;12.50;2.70;;;;;;;;;;5133919;27;20046;-77
2023/09/19 02:28:06;;;;;;;13.60;2.50;;;;;;;;;;5133821;27;20189;-76
2023/09/19 02:30:33;;;;;;;11.73;2.63;;;;;;;;;;5117532;27;20555;-76
2023/09/19 02:33:03;;;;;;;9.60;2.80;;;;;;;;;;5133539;27;20081;-76
2023/09/19 02:35:34;;;;;;;14.32;2.60;;;;;;;;;;5132475;27;20043;-77
2023/09/19 02:38:00;;;;;;;11.20;2.40;;;;;;;;;;5111056;28;20051;-76
2023/09/19 02:40:27;;;;;;;;;;;;;;;;;;5110725;28;20051;-77
2023/09/19 02:42:54;;;;;;;12.98;2.83;;;;;;;;;;5109225;28;19920;-76
2023/09/19 02:45:20;;;;;;;16.95;2.92;;;;;;;;;;5095937;28;20044;-76
2023/09/19 02:47:47;;;;;;;9.32;2.38;;;;;;;;;;5130364;28;20088;-76
2023/09/19 02:50:15;;;;;;;8.27;2.28;;;;;;;;;;5130106;28;20082;-77
2023/09/19 02:52:45;;;;;;;11.85;2.47;;;;;;;;;;5112158;28;20035;-77
2023/09/19 02:55:14;;;;;;;12.88;2.45;;;;;;;;;;5098913;28;20051;-76
2023/09/19 02:57:42;;;;;;;5.80;2.10;;;;;;;;;;5093025;28;20057;-76
2023/09/19 03:00:12;;;;;;;10.52;2.75;;;;;;;;;;5110902;28;20446;-76
2023/09/19 03:02:40;;;;;;;11.75;2.65;;;;;;;;;;5109531;28;20047;-77
2023/09/19 03:05:07;;;;;;;11.40;2.58;;;;;;;;;;5092943;28;20051;-77
2023/09/19 03:07:33;;;;;;;7.38;2.35;;;;;;;;;;5110933;28;20043;-77
2023/09/19 03:09:59;;;;;;;;;;;;;;;;;;5107028;28;20048;-79
2023/09/19 03:12:26;;;;;;;6.97;1.88;;;;;;;;;;5096731;28;20349;-77
2023/09/19 03:14:52;;;;;;;10.18;2.45;;;;;;;;;;5079369;28;20485;-81
2023/09/19 03:17:19;;;;;;;9.55;2.20;;;;;;;;;;5096428;28;20513;-76
2023/09/19 03:19:47;;;;;;;6.85;2.30;;;;;;;;;;5096683;28;20044;-76
2023/09/19 03:22:13;;;;;;;7.50;2.15;;;;;;;;;;5090759;28;20836;-77
2023/09/19 03:24:39;;;;;;;8.48;2.08;;;;;;;;;;5130662;27;20100;-76
2023/09/19 03:27:05;;;;;;;;;;;;;;;;;;5096344;28;20104;-77
2023/09/19 03:29:31;;;;;;;9.52;1.98;;;;;;;;;;5113489;28;20010;-76
2023/09/19 03:31:57;;;;;;;;;;;;;;;;;;5097525;28;20449;-76
2023/09/19 03:34:24;;;;;;;8.95;2.08;;;;;;;;;;5113152;28;19926;-77
2023/09/19 03:36:50;;;;;;;12.48;2.75;;;;;;;;;;5094819;28;20052;-77
2023/09/19 03:39:16;;;;;;;12.20;2.30;;;;;;;;;;5095678;28;20043;-77
2023/09/19 03:41:42;;;;;;;;;;;;;;;;;;5113384;28;20035;-76
2023/09/19 03:44:08;;;;;;;12.68;2.17;;;;;;;;;;5112605;28;19942;-78
2023/09/19 03:46:36;;;;;;;10.55;2.05;;;;;;;;;;5112709;28;20126;-76
2023/09/19 03:49:02;;;;;;;7.15;2.10;;;;;;;;;;5095974;28;20047;-76
2023/09/19 03:51:29;;;;;;;10.30;2.30;;;;;;;;;;5111630;28;20058;-76
2023/09/19 03:53:56;;;;;;;7.70;2.28;;;;;;;;;;5112555;28;20155;-81
2023/09/19 03:56:22;;;;;;;11.38;2.97;;;;;;;;;;5079179;28;20083;-76
2023/09/19 03:58:48;;;;;;;17.35;2.78;;;;;;;;;;5115553;27;20063;-77
2023/09/19 04:01:16;;;;;;;10.55;2.83;;;;;;;;;;5112131;28;20044;-76
2023/09/19 04:03:50;;;;;;;14.73;2.80;;;;;;;;;;5112686;28;20104;-76
2023/09/19 04:06:17;;;;;;;11.13;2.40;;;;;;;;;;5097166;27;20213;-76
2023/09/19 04:08:44;;;;;;;12.15;2.90;;;;;;;;;;5087242;27;20403;-77
2023/09/19 04:11:10;;;;;;;12.70;2.90;;;;;;;;;;5132714;27;20050;-77
2023/09/19 04:13:36;;;;;;;15.25;2.70;;;;;;;;;;5116254;27;20449;-76
2023/09/19 04:16:03;;;;;;;;;;;;;;;;;;5132833;27;20126;-79
2023/09/19 04:18:37;;;;;;;16.73;2.97;;;;;;;;;;5127053;27;20351;-77
2023/09/19 04:21:04;;;;;;;10.15;2.80;;;;;;;;;;5094292;28;20043;-78
2023/09/19 04:23:30;;;;;;;10.68;2.53;;;;;;;;;;5112134;28;20043;-77
2023/09/19 04:25:57;;;;;;;15.23;2.90;;;;;;;;;;5106842;27;20467;-77
2023/09/19 04:28:24;;;;;;;15.48;3.38;;;;;;;;;;5098400;27;20047;-76
2023/09/19 04:30:50;;;;;;;11.10;2.63;;;;;;;;;;5116162;27;20039;-79
2023/09/19 04:33:17;;;;;;;18.80;3.15;;;;;;;;;;5131198;27;20070;-76
2023/09/19 04:35:43;;;;;;;12.27;2.75;;;;;;;;;;5094787;28;20043;-77
2023/09/19 04:38:09;;;;;;;;;;;;;;;;;;5093483;28;20116;-76
2023/09/19 04:40:35;;;;;;;18.52;2.50;;;;;;;;;;5131771;27;19919;-77
2023/09/19 04:43:01;;;;;;;;;;;;;;;;;;5132914;27;20047;-80
2023/09/19 04:45:27;;;;;;;14.68;3.58;;;;;;;;;;5115711;27;20503;-77
2023/09/19 04:47:54;;;;;;;11.15;2.92;;;;;;;;;;5115550;27;20050;-77
2023/09/19 04:50:21;;;;;;;19.88;3.90;;;;;;;;;;5114396;27;20051;-78
2023/09/19 04:52:50;;;;;;;18.40;3.47;;;;;;;;;;5110149;28;20048;-76
2023/09/19 04:55:17;;;;;;;14.95;3.13;;;;;;;;;;5094204;28;20039;-77
2023/09/19 04:57:44;;;;;;;13.45;2.75;;;;;;;;;;5097856;27;20051;-76
2023/09/19 05:00:12;;;;;;;11.57;2.55;;;;;;;;;;5128936;27;20048;-76
2023/09/19 05:02:39;;;;;;;15.70;2.72;;;;;;;;;;5094202;28;20043;-77
2023/09/19 05:05:06;;;;;;;11.75;2.45;;;;;;;;;;5122614;27;20047;-79
2023/09/19 05:07:34;;;;;;;14.73;2.90;;;;;;;;;;5092828;28;20043;-77
2023/09/19 05:10:00;;;;;;;13.60;2.58;;;;;;;;;;5128775;27;20052;-77
2023/09/19 05:12:27;;;;;;;13.70;2.35;;;;;;;;;;5093661;28;20139;-76
2023/09/19 05:14:53;;;;;;;14.85;3.20;;;;;;;;;;5095021;28;20070;-76
2023/09/19 05:17:19;;;;;;;;;;;;;;;;;;5094088;28;20047;-76
2023/09/19 05:19:46;;;;;;;10.32;2.58;;;;;;;;;;5107749;27;20283;-77
2023/09/19 05:22:12;;;;;;;19.30;2.80;;;;;;;;;;5125580;27;20108;-77
2023/09/19 05:24:39;;;;;;;11.80;2.45;;;;;;;;;;5114940;27;20082;-76
2023/09/19 05:27:07;;;;;;;11.82;2.78;;;;;;;;;;5115012;27;20047;-81
2023/09/19 05:29:33;;;;;;;13.20;2.08;;;;;;;;;;5114450;27;20047;-77
2023/09/19 05:31:59;;;;;;;14.38;2.70;;;;;;;;;;5131893;27;20148;-76
2023/09/19 05:34:30;;;;;;;13.80;2.58;;;;;;;;;;5097640;27;20517;-76
2023/09/19 05:36:56;;;;;;;19.38;2.70;;;;;;;;;;5113100;27;20055;-77
2023/09/19 05:39:22;;;;;;;13.18;2.72;;;;;;;;;;5107062;27;20493;-77
2023/09/19 05:41:49;;;;;;;13.75;2.40;;;;;;;;;;5094500;28;20123;-77
2023/09/19 05:44:14;;;;;;;;;;;;;;;;;;5094437;28;20044;-76
2023/09/19 05:46:41;;;;;;;12.82;2.47;;;;;;;;;;5130345;27;19968;-76
2023/09/19 05:49:07;;;;;;;14.07;2.67;;;;;;;;;;5114624;28;20175;-79
2023/09/19 05:51:33;;;;;;;;;;;;;;;;;;5107097;28;20043;-77
2023/09/19 05:53:59;;;;;;;15.80;2.65;;;;;;;;;;5094027;28;20488;-77
2023/09/19 05:56:25;;;;;;;;;;;;;;;;;;5104581;28;20047;-78
2023/09/19 05:58:51;;;;;;;11.07;3.03;;;;;;;;;;5116075;28;19919;-79
2023/09/19 06:01:18;;;;;;;15.48;3.03;;;;;;;;;;5106173;28;20050;-78
2023/09/19 06:03:44;;;;;;;;;;;;;;;;;;5094902;28;20104;-76
2023/09/19 06:06:10;;;;;;;12.68;2.30;;;;;;;;;;5100917;28;19924;-80
2023/09/19 06:08:36;;;;;;;;;;;;;;;;;;5097189;28;20047;-75
2023/09/19 06:11:02;;;;;;;14.52;2.78;;;;;;;;;;5131750;28;19919;-78
2023/09/19 06:13:28;;;;;;;;;;;;;;;;;;5114822;28;20055;-79
2023/09/19 06:15:56;;;;;;;12.30;2.63;;;;;;;;;;5131478;28;19919;-77
2023/09/19 06:18:26;;;;;;;17.33;2.58;;;;;;;;;;5131119;28;20072;-77
2023/09/19 06:20:52;;;;;;;14.23;2.67;;;;;;;;;;5115472;28;20050;-78
2023/09/19 06:23:19;;;;;;;13.50;2.78;;;;;;;;;;5130270;28;20085;-77
2023/09/19 06:25:46;;;;;;;12.07;2.42;;;;;;;;;;5107911;28;20054;-77
2023/09/19 06:28:12;;;;;;;11.93;2.97;;;;;;;;;;5097854;28;20057;-82
2023/09/19 06:30:42;;;;;;;12.90;2.47;;;;;;;;;;5131848;28;20065;-77
2023/09/19 06:33:08;;;;;;;12.27;2.53;;;;;;;;;;5115273;28;20412;-77
2023/09/19 06:35:34;;;;;;;9.32;2.30;;;;;;;;;;5114606;28;20087;-77
2023/09/19 06:38:00;;;;;;;;;;;;;;;;;;5130614;28;20488;-77
2023/09/19 06:40:28;;;;;;;11.63;2.15;;;;;;;;;;5114982;27;19926;-78
2023/09/19 06:42:55;;;;;;;10.77;2.30;;;;;;;;;;5101244;27;20039;-77
2023/09/19 06:45:22;;;;;;;12.52;2.50;;;;;;;;;;5118271;27;20050;-78
2023/09/19 06:47:51;;;;;;;;;;;;;;;;;;5114783;28;20054;-77
2023/09/19 06:50:22;;;;;;;13.02;2.50;;;;;;;;;;5118874;27;19927;-77
2023/09/19 06:52:49;;;;;;;14.55;2.25;;;;;;;;;;5134337;27;20458;-77
2023/09/19 06:55:16;;;;;;;13.60;2.17;;;;;;;;;;5118062;27;20434;-85
2023/09/19 06:57:45;;;;;;;11.70;2.47;;;;;;;;;;5135934;27;20039;-77
2023/09/19 07:00:15;;;;;;;13.20;2.70;;;;;;;;;;5118554;27;20055;-75
2023/09/19 07:02:42;;;;;;;10.93;2.70;;;;;;;;;;5117977;27;20039;-76
2023/09/19 07:05:09;;;;;;;11.40;2.45;;;;;;;;;;5101304;27;20434;-77
2023/09/19 07:07:35;;;;;;;12.40;2.10;;;;;;;;;;5115965;27;20050;-77
2023/09/19 07:10:13;;;;;;;15.40;2.38;;;;;;;;;;5097534;28;20079;-78
2023/09/19 07:12:40;;;;;;;15.13;2.55;;;;;;;;;;5111748;28;20096;-78
2023/09/19 07:15:06;;;;;;;13.18;2.33;;;;;;;;;;5114391;28;20071;-78
2023/09/19 07:17:33;;;;;;;12.10;2.47;;;;;;;;;;5115656;27;20051;-77
2023/09/19 07:19:59;;;;;;;;;;;;;;;;;;5115864;27;20058;-77
2023/09/19 07:22:29;;;;;;;12.52;2.67;;;;;;;;;;5114879;27;19919;-78
2023/09/19 07:24:55;;;;;;;19.13;2.63;;;;;;;;;;5134755;27;20047;-76
2023/09/19 07:27:21;;;;;;;10.95;2.55;;;;;;;;;;5133673;27;20043;-77
2023/09/19 07:29:47;;;;;;;;;;;;;;;;;;5134575;27;20151;-77
2023/09/19 07:32:13;;;;;;;14.23;2.60;;;;;;;;;;5113865;27;20735;-76
2023/09/19 07:34:40;;;;;;;12.75;1.90;;;;;;;;;;5112179;28;20185;-76
2023/09/19 07:37:07;;;;;;;16.35;2.30;;;;;;;;;;5132353;27;20134;-76
2023/09/19 07:39:33;;;;;;;11.73;2.35;;;;;;;;;;5134047;27;20099;-77
2023/09/19 07:41:59;;;;;;;;;;;;;;;;;;5099741;27;20080;-77
2023/09/19 07:44:27;;;;;;;9.88;2.33;;;;;;;;;;5141459;27;19973;-76
2023/09/19 07:46:53;;;;;;;9.10;2.20;;;;;;;;;;5135747;27;20490;-76
2023/09/19 07:49:19;;;;;;;14.15;2.55;;;;;;;;;;5127967;27;20214;-77
2023/09/19 07:51:48;;;;;;;;;;;;;;;;;;5110600;27;20035;-76
2023/09/19 07:54:14;;;;;;;14.27;2.63;;;;;;;;;;5131445;27;19923;-75
2023/09/19 07:56:41;;;;;;;11.45;2.47;;;;;;;;;;5121257;27;20043;-76
2023/09/19 07:59:08;;;;;;;9.00;2.25;;;;;;;;;;5116481;27;20172;-76
2023/09/19 08:01:35;;;;;;;7.68;2.15;;;;;;;;;;5131878;27;20165;-74
2023/09/19 08:04:01;;;;;;;14.95;2.95;;;;;;;;;;5113047;28;20055;-76
2023/09/19 08:06:30;;;;;;;9.15;1.85;;;;;;;;;;5096433;28;20054;-76
2023/09/19 08:08:56;;;;;;;13.18;2.50;;;;;;;;;;5108224;27;20055;-75
2023/09/19 08:11:24;;;;;;;13.57;2.20;;;;;;;;;;5126615;27;20055;-79
2023/09/19 08:13:50;;;;;;;11.35;2.30;;;;;;;;;;5096126;28;20377;-74
2023/09/19 08:16:22;;;;;;;14.50;2.47;;;;;;;;;;5126026;27;20039;-75
2023/09/19 08:18:48;;;;;;;11.80;2.60;;;;;;;;;;5127540;27;20052;-74
2023/09/19 08:21:14;;;;;;;12.23;2.58;;;;;;;;;;5094753;28;20459;-73
2023/09/19 08:23:40;;;;;;;;;;;;;;;;;;5125009;27;20048;-74
2023/09/19 08:26:07;;;;;;;13.80;2.72;;;;;;;;;;5123726;27;19992;-74
2023/09/19 08:28:34;;;;;;;10.65;2.30;;;;;;;;;;5114562;27;20048;-74
2023/09/19 08:31:04;;;;;;;12.90;3.50;;;;;;;;;;5112612;28;20096;-74
2023/09/19 08:33:32;;;;;;;12.13;2.97;;;;;;;;;;5121129;27;20046;-73
2023/09/19 08:35:58;;;;;;;12.70;3.00;;;;;;;;;;5115472;27;20507;-74
2023/09/19 08:38:25;;;;;;;;;;;;;;;;;;5105680;27;20131;-76
2023/09/19 08:40:51;;;;;;;14.10;2.53;;;;;;;;;;5119288;27;19972;-75
2023/09/19 08:43:17;;;;;;;;;;;;;;;;;;5121188;27;20130;-74
2023/09/19 08:45:43;;;;;;;12.77;2.72;;;;;;;;;;5130630;27;20693;-75
2023/09/19 08:48:11;;;;;;;;;;;;;;;;;;5105220;27;20396;-75
2023/09/19 08:50:44;;;;;;;13.20;2.60;;;;;;;;;;5119126;27;19923;-75
2023/09/19 08:53:12;;;;;;;17.10;2.90;;;;;;;;;;5115875;27;20480;-75
2023/09/19 08:55:41;;;;;;;12.20;2.70;;;;;;;;;;5113440;27;20051;-75
2023/09/19 08:58:09;;;;;;;18.13;3.08;;;;;;;;;;5098698;28;20514;-75
2023/09/19 09:00:35;;;;;;;14.50;3.17;;;;;;;;;;5098793;28;20450;-75
2023/09/19 09:03:02;;;;;;;12.98;2.70;;;;;;;;;;5099983;28;20484;-75
2023/09/19 09:05:29;;;;;;;15.43;3.10;;;;;;;;;;5094855;28;20043;-77
2023/09/19 09:07:56;;;;;;;14.98;2.92;;;;;;;;;;5104403;27;20055;-78
2023/09/19 09:10:22;;;;;;;14.88;2.58;;;;;;;;;;5126122;27;20051;-78
2023/09/19 09:12:54;;;;;;;11.27;2.47;;;;;;;;;;5091321;28;20043;-76
2023/09/19 09:15:23;;;;;;;17.35;2.67;;;;;;;;;;5113175;27;20477;-78
2023/09/19 09:17:50;;;;;;;14.05;3.17;;;;;;;;;;5111039;28;20044;-74
2023/09/19 09:20:18;;;;;;;15.18;3.38;;;;;;;;;;5129915;27;20130;-74
2023/09/19 09:23:11;;;;;;;12.90;2.50;;;;;;;;;;5118855;27;20035;-75
2023/09/19 09:25:56;;;;;;;12.63;2.70;;;;;;;;;;5107137;28;20058;-76
2023/09/19 09:28:22;;;;;;;13.45;2.72;;;;;;;;;;5103425;28;20048;-75
2023/09/19 09:30:50;;;;;;;16.42;2.70;;;;;;;;;;5127084;27;20039;-75
2023/09/19 09:33:16;;;;;;;12.13;2.85;;;;;;;;;;5110388;28;20043;-75
2023/09/19 09:35:52;;;;;;;12.23;3.17;;;;;;;;;;5111747;27;20104;-76
2023/09/19 09:38:25;;;;;;;13.40;2.97;;;;;;;;;;5113786;27;20047;-76
2023/09/19 09:41:06;;;;;;;11.70;2.72;;;;;;;;;;5111083;27;20222;-78
2023/09/19 09:43:35;;;;;;;10.68;2.22;;;;;;;;;;5119318;27;20433;-78
2023/09/19 09:49:40;;;;;;;12.52;2.60;;;;;;;;;;5110351;28;20119;-76
2023/09/19 09:51:57;;;;;;;13.80;2.42;;;;;;;;;;5104486;27;20051;-75
2023/09/19 09:54:23;;;;;;;11.80;3.22;;;;;;;;;;5112736;28;20055;-76
2023/09/19 09:57:20;;;;;;;11.95;2.30;;;;;;;;;;5118791;28;20512;-76
2023/09/19 09:59:53;;;;;;;13.90;3.70;;;;;;;;;;5093724;28;20070;-75
2023/09/19 10:02:32;;;;;;;16.85;3.83;;;;;;;;;;5115628;28;20110;-75
2023/09/19 10:05:21;;;;;;;11.75;2.58;;;;;;;;;;5101444;28;20042;-76
2023/09/19 10:07:52;;;;;;;9.43;2.38;;;;;;;;;;5111880;28;20335;-76
2023/09/19 10:13:07;;;;;;;11.35;2.35;;;;;;;;;;5112992;28;20048;-75
2023/09/19 10:15:33;;;;;;;15.35;3.15;;;;;;;;;;5120613;27;20047;-75
2023/09/19 10:18:08;;;;;;;20.70;3.17;;;;;;;;;;5114060;28;20035;-75
2023/09/19 10:20:35;;;;;;;15.63;2.92;;;;;;;;;;5115077;27;20047;-75
2023/09/19 10:23:10;;;;;;;15.13;2.65;;;;;;;;;;5096368;28;20043;-76
2023/09/19 10:25:37;;;;;;;13.05;2.30;;;;;;;;;;5129206;27;20122;-77
2023/09/19 10:28:10;;;;;;;13.48;2.88;;;;;;;;;;5126463;27;20065;-75
2023/09/19 10:30:39;;;;;;;13.73;2.67;;;;;;;;;;5135592;27;20090;-77
2023/09/19 10:33:08;;;;;;;16.20;2.97;;;;;;;;;;5135012;27;20082;-76
2023/09/19 10:35:34;;;;;;;20.35;3.10;;;;;;;;;;5128092;27;20050;-75
2023/09/19 10:38:01;;;;;;;13.95;2.80;;;;;;;;;;5109378;27;20083;-77
2023/09/19 10:40:31;;;;;;;13.85;2.72;;;;;;;;;;5121798;27;20043;-75
2023/09/19 10:43:07;;;;;;;17.40;3.03;;;;;;;;;;5129558;27;20035;-75
2023/09/19 10:45:34;;;;;;;14.90;3.35;;;;;;;;;;5098332;28;20131;-74
2023/09/19 10:48:03;;;;;;;14.52;2.72;;;;;;;;;;5124287;27;20100;-75
2023/09/19 10:51:04;;;;;;;20.17;3.63;;;;;;;;;;5122845;27;20053;-76
2023/09/19 10:53:32;;;;;;;17.85;2.97;;;;;;;;;;5064545;27;20063;-75
2023/09/19 10:56:00;;;;;;;10.50;3.00;;;;;;;;;;5110973;27;20081;-76
2023/09/19 10:58:30;;;;;;;14.45;2.25;;;;;;;;;;5134985;27;20365;-76
2023/09/19 11:01:05;;;;;;;14.27;2.58;;;;;;;;;;5115319;27;20050;-76
2023/09/19 11:03:32;;;;;;;13.25;2.65;;;;;;;;;;5107985;28;20055;-75
2023/09/19 11:06:09;;;;;;;11.45;2.42;;;;;;;;;;5110373;27;20063;-75
2023/09/19 11:08:57;;;;;;;17.10;3.15;;;;;;;;;;5104474;28;20488;-75
2023/09/19 11:11:39;;;;;;;8.35;2.60;;;;;;;;;;5113872;27;20058;-75
2023/09/19 11:14:34;;;;;;;9.88;2.38;;;;;;;;;;5109726;28;20100;-75
2023/09/19 11:17:24;;;;;;;13.27;2.60;;;;;;;;;;5113609;27;20051;-75
2023/09/19 11:22:58;;;;;;;12.93;2.85;;;;;;;;;;5112221;27;20044;-75
2023/09/19 11:25:31;;;;;;;11.27;2.15;;;;;;;;;;5120141;27;20059;-76
2023/09/19 11:28:14;;;;;;;13.88;2.60;;;;;;;;;;5112003;28;20047;-75
2023/09/19 11:30:48;;;;;;;14.95;2.80;;;;;;;;;;5116816;27;20093;-75
2023/09/19 11:33:37;;;;;;;12.32;2.20;;;;;;;;;;5107345;28;20043;-75
2023/09/19 11:36:16;;;;;;;11.25;2.22;;;;;;;;;;5133332;27;20085;-76
2023/09/19 11:38:45;;;;;;;11.95;2.28;;;;;;;;;;5119314;27;20126;-75
2023/09/19 11:41:28;;;;;;;8.52;2.20;;;;;;;;;;5121366;27;20587;-75
2023/09/19 11:44:00;;;;;;;19.48;2.60;;;;;;;;;;5107704;28;20050;-76
2023/09/19 11:46:50;;;;;;;12.85;2.72;;;;;;;;;;5125960;27;20112;-77
2023/09/19 11:49:20;;;;;;;12.90;2.20;;;;;;;;;;5102637;28;20051;-76
2023/09/19 11:51:48;;;;;;;10.82;2.67;;;;;;;;;;5127655;27;20100;-78
2023/09/19 11:54:18;;;;;;;9.73;2.70;;;;;;;;;;5102243;27;20547;-77
2023/09/19 11:56:45;;;;;;;11.63;2.30;;;;;;;;;;5095906;28;20051;-76
2023/09/19 11:59:12;;;;;;;12.50;2.33;;;;;;;;;;5108445;27;20399;-76
2023/09/19 12:01:44;;;;;;;12.68;2.50;;;;;;;;;;5096511;28;20100;-76
2023/09/19 12:04:12;;;;;;;10.93;2.13;;;;;;;;;;5112498;27;20052;-76
2023/09/19 12:06:44;;;;;;;14.60;2.47;;;;;;;;;;5118553;27;20127;-76
2023/09/19 12:09:16;;;;;;;12.90;2.03;;;;;;;;;;5143094;27;20047;-76
2023/09/19 12:11:46;;;;;;;11.15;2.53;;;;;;;;;;5113076;28;20059;-76
2023/09/19 12:14:21;;;;;;;11.57;2.65;;;;;;;;;;5124348;27;20105;-77
2023/09/19 12:16:57;;;;;;;12.05;2.30;;;;;;;;;;5095916;28;20051;-76
2023/09/19 12:19:23;;;;;;;15.97;2.80;;;;;;;;;;5103536;27;20605;-76
2023/09/19 12:21:57;;;;;;;10.68;2.70;;;;;;;;;;5103791;27;20047;-78
2023/09/19 12:24:26;;;;;;;11.45;2.30;;;;;;;;;;5120711;27;20057;-76
2023/09/19 12:26:52;;;;;;;13.25;2.65;;;;;;;;;;5132356;27;20082;-76
2023/09/19 12:29:22;;;;;;;12.38;2.67;;;;;;;;;;5108010;28;20078;-76
2023/09/19 12:32:03;;;;;;;14.07;2.70;;;;;;;;;;5094631;27;20055;-76
2023/09/19 12:34:30;;;;;;;10.93;2.65;;;;;;;;;;5110797;28;20511;-76
2023/09/19 12:37:15;;;;;;;10.80;2.45;;;;;;;;;;5107357;28;20035;-76
2023/09/19 12:39:42;;;;;;;12.73;2.30;;;;;;;;;;5126590;27;20054;-77
2023/09/19 12:42:09;;;;;;;14.40;2.40;;;;;;;;;;5098591;28;20096;-77
2023/09/19 12:44:42;;;;;;;13.50;2.50;;;;;;;;;;5123128;27;20489;-76
2023/09/19 12:47:14;;;;;;;13.20;2.17;;;;;;;;;;5115038;27;20051;-78
2023/09/19 12:49:58;;;;;;;9.85;2.10;;;;;;;;;;5126907;27;20048;-77
2023/09/19 12:52:25;;;;;;;16.45;2.88;;;;;;;;;;5105551;27;20079;-78
2023/09/19 12:54:52;;;;;;;13.48;2.50;;;;;;;;;;5106781;27;20462;-78
2023/09/19 12:57:28;;;;;;;10.98;2.45;;;;;;;;;;5130671;27;20047;-77
2023/09/19 12:59:55;;;;;;;10.30;2.13;;;;;;;;;;5129788;27;20385;-78
2023/09/19 13:02:23;;;;;;;10.82;2.30;;;;;;;;;;5128895;27;20047;-77
2023/09/19 13:04:59;;;;;;;7.82;2.13;;;;;;;;;;5096872;27;20048;-78
2023/09/19 13:07:49;;;;;;;11.70;2.15;;;;;;;;;;5114708;27;20050;-78
2023/09/19 13:10:16;;;;;;;12.30;2.63;;;;;;;;;;5108960;27;20046;-77
2023/09/19 13:12:46;;;;;;;12.30;2.33;;;;;;;;;;5111596;27;20173;-76
2023/09/19 13:15:16;;;;;;;13.98;2.22;;;;;;;;;;5110057;28;20051;-78
2023/09/19 13:17:46;;;;;;;8.73;2.03;;;;;;;;;;5110544;27;20114;-76
2023/09/19 13:20:49;;;;;;;11.93;2.13;;;;;;;;;;5110516;27;20035;-76
2023/09/19 13:23:28;;;;;;;9.27;2.30;;;;;;;;;;5094899;28;20039;-77
2023/09/19 13:25:54;;;;;;;12.95;2.10;;;;;;;;;;5108987;27;20043;-77
2023/09/19 13:28:20;;;;;;;;;;;;;;;;;;5093794;28;20468;-77
2023/09/19 13:30:46;;;;;;;9.23;1.80;;;;;;;;;;5131210;27;19955;-77
2023/09/19 13:33:19;;;;;;;12.23;2.60;;;;;;;;;;5126534;27;20095;-77
2023/09/19 13:35:45;;;;;;;12.57;2.70;;;;;;;;;;5097755;28;20134;-77
2023/09/19 13:38:12;;;;;;;14.63;2.40;;;;;;;;;;5104290;27;20496;-77
2023/09/19 13:40:41;;;;;;;11.27;2.10;;;;;;;;;;5096797;27;20087;-76
2023/09/19 13:43:08;;;;;;;11.25;1.98;;;;;;;;;;5128131;27;20039;-78
2023/09/19 13:45:34;;;;;;;12.93;2.63;;;;;;;;;;5111434;27;20051;-77
2023/09/19 13:48:00;;;;;;;7.38;1.83;;;;;;;;;;5113496;27;20039;-78
2023/09/19 13:50:26;;;;;;;8.93;1.90;;;;;;;;;;5097872;28;20077;-76
2023/09/19 13:52:53;;;;;;;6.45;2.00;;;;;;;;;;5111305;28;20047;-78
2023/09/19 13:55:22;;;;;;;8.90;1.92;;;;;;;;;;5100603;28;20046;-76
2023/09/19 13:57:55;;;;;;;5.85;2.00;;;;;;;;;;5130383;28;20492;-77
2023/09/19 14:00:22;;;;;;;9.40;1.90;;;;;;;;;;5112988;28;20608;-76
2023/09/19 14:02:49;;;;;;;9.23;2.00;;;;;;;;;;5111802;28;20431;-78
2023/09/19 14:05:16;;;;;;;8.90;1.75;;;;;;;;;;5107501;28;20051;-76
2023/09/19 14:07:46;;;;;;;8.52;1.88;;;;;;;;;;5095221;28;20050;-74
2023/09/19 14:10:12;;;;;;;9.63;1.85;;;;;;;;;;5111187;28;20040;-77
2023/09/19 14:12:40;;;;;;;6.60;1.90;;;;;;;;;;5113700;28;20047;-76
2023/09/19 14:15:08;;;;;;;10.20;2.13;;;;;;;;;;5112935;28;20047;-77
2023/09/19 14:17:34;;;;;;;8.45;1.80;;;;;;;;;;5120646;28;20047;-77
2023/09/19 14:20:00;;;;;;;9.90;1.75;;;;;;;;;;5125950;28;20047;-76
2023/09/19 14:22:26;;;;;;;;;;;;;;;;;;5093771;28;20122;-77
2023/09/19 14:24:52;;;;;;;6.07;2.00;;;;;;;;;;5113391;28;19920;-76
2023/09/19 14:27:19;;;;;;;8.25;1.60;;;;;;;;;;5114656;28;20047;-78
2023/09/19 14:29:45;;;;;;;9.95;1.45;;;;;;;;;;5089697;28;20043;-77
2023/09/19 14:32:11;;;;;;;;;;;;;;;;;;5108569;28;20039;-77
2023/09/19 14:34:42;;;;;;;4.70;1.60;;;;;;;;;;5126655;27;19926;-77
2023/09/19 14:37:09;;;;;;;10.45;2.13;;;;;;;;;;5142512;27;20802;-77
2023/09/19 14:39:36;;;;;;;10.75;2.00;;;;;;;;;;5112684;28;20052;-77
2023/09/19 14:42:02;;;;;;;5.75;1.40;;;;;;;;;;5123312;28;20040;-79
2023/09/19 14:44:28;;;;;;;7.90;2.00;;;;;;;;;;5067039;28;20082;-77
2023/09/19 14:46:54;;;;;;;;;;;;;;;;;;5089114;28;20047;-77
2023/09/19 14:49:21;;;;;;;8.40;1.55;;;;;;;;;;5111811;28;19930;-78
2023/09/19 14:51:49;;;;;;;8.57;2.20;;;;;;;;;;5100830;28;20396;-78
2023/09/19 14:54:18;;;;;;;9.10;1.50;;;;;;;;;;5098104;28;20048;-77
2023/09/19 14:56:45;;;;;;;8.40;1.75;;;;;;;;;;5098894;28;20129;-76
2023/09/19 14:59:12;;;;;;;5.82;1.60;;;;;;;;;;5080568;28;20044;-77
2023/09/19 15:01:39;;;;;;;7.70;1.73;;;;;;;;;;5098809;28;20047;-77
2023/09/19 15:04:05;;;;;;;5.22;1.77;;;;;;;;;;5102009;28;20047;-79